Impacts METAR Board
IDs:

KSLC - Salt Lake City Intl, UT, US

Updated at: 2000 UTC 16 Aug 2018
Potential Impact None Slight Moderate High
Time 16/08Z 16/09Z 16/10Z 16/11Z 16/12Z 16/13Z 16/14Z 16/15Z 16/16Z 16/17Z 16/18Z 16/19Z 16/20Z
Temp77 74 74 74 73 72 73 74 77 82 84 87 88
Dewpt49 50 50 47 50 51 52 52 50 48 47 47 47
Altim30.07 30.08 30.09 30.09 30.10 30.12 30.14 30.16 30.16 30.17 30.16 30.15 30.13
VIS10 10 10 10 10 10 10 10 10 10 10 10 10
CIG190 190 190 190 190 140 -- 150 -- -- -- -- --
CoverBKNBKNBKNBKNBKNBKNSCTBKNSCTSCTSCTSCTFEW
FltCatVFRVFRVFRVFRVFRVFRVFRVFRVFRVFRVFRVFRVFR
WX--------------------------
WDir130180140120130140150120130170000
WSpd6 6 7 6 5 8 7 7 6 8 4 3 4
WGst-- -- -- -- -- -- -- -- -- -- -- -- --
Raw hourly METARs
KSLC 160754Z 13006KT 10SM SCT140 BKN190 25/09 A3007 RMK AO2 SLP120 T02500094
KSLC 160854Z 18006KT 10SM SCT140 BKN190 23/10 A3008 RMK AO2 SLP124 T02330100 51004
KSLC 160954Z 14007KT 10SM SCT140 BKN190 23/10 A3009 RMK AO2 SLP127 T02330100
KSLC 161054Z 12006KT 10SM FEW140 BKN190 23/08 A3009 RMK AO2 SLP127 T02330083
KSLC 161154Z COR 13005KT 10SM SCT140 BKN190 23/10 A3010 RMK AO2 SLP131 T02280100 10267 20228 51007
KSLC 161254Z 14008KT 10SM SCT120 BKN140 22/11 A3012 RMK AO2 SLP138 T02220106
KSLC 161354Z 15007KT 10SM SCT160 23/11 A3014 RMK AO2 SLP145 T02280111
KSLC 161454Z 12007KT 10SM BKN150 23/11 A3016 RMK AO2 SLP154 T02330111 53017
KSLC 161554Z 13006KT 10SM SCT150 25/10 A3016 RMK AO2 SLP154 T02500100
KSLC 161654Z 17008KT 10SM FEW085 SCT150 28/09 A3017 RMK AO2 SLP154 T02780089
KSLC 161754Z VRB04KT 10SM FEW085 SCT150 29/08 A3016 RMK AO2 SLP152 TCU DSNT SW T02890083 10289 20217 50002
KSLC 161854Z VRB03KT 10SM FEW090 SCT140 31/08 A3015 RMK AO2 SLP145 TCU DSNT NE AND SE AND SW T03060083
KSLC 161954Z VRB04KT 10SM FEW090 FEW140 31/08 A3013 RMK AO2 SLP141 TCU DSNT NE AND SE AND SW-W T03110083



Page loaded:  20:19 UTC  |   01:19 PM Pacific  |   02:19 PM Mountain  |   03:19 PM Central  |   04:19 PM Eastern

 

ADVISORIES

FORECASTS

FORECASTS

OBSERVATIONS

USER TOOLS

ABOUT US